createdAt,value
2018-11-03T00:01:17.986Z,100858.77
2018-11-03T00:03:45.731Z,100857.94
2018-11-03T00:06:13.470Z,100856.66
2018-11-03T00:08:41.225Z,100854.02
2018-11-03T00:11:09.006Z,100855.92
2018-11-03T00:13:36.718Z,100852.03
2018-11-03T00:16:04.700Z,100856.25
2018-11-03T00:18:32.505Z,100848.62
2018-11-03T00:21:00.246Z,100848.44
2018-11-03T00:23:28.042Z,100853.14
2018-11-03T00:25:55.803Z,100841.16
2018-11-03T00:28:23.549Z,100845.88
2018-11-03T00:30:51.277Z,100841.58
2018-11-03T00:33:19.023Z,100846.95
2018-11-03T00:35:46.762Z,100839.89
2018-11-03T00:38:14.510Z,100839.55
2018-11-03T00:40:42.277Z,100831.09
2018-11-03T00:43:10.003Z,100834.19
2018-11-03T00:45:37.734Z,100831.33
2018-11-03T00:48:05.870Z,100828.10
2018-11-03T00:50:33.634Z,100828.23
2018-11-03T00:53:01.391Z,100825.92
2018-11-03T00:55:29.119Z,100824.02
2018-11-03T00:57:56.858Z,100814.77
2018-11-03T01:00:24.638Z,100819.97
2018-11-03T01:02:52.394Z,100821.30
2018-11-03T01:05:20.201Z,100818.54
2018-11-03T01:07:47.983Z,100818.12
2018-11-03T01:10:16.673Z,100814.56
2018-11-03T01:12:44.470Z,100818.73
2018-11-03T01:15:13.566Z,100822.91
2018-11-03T01:17:41.353Z,100814.77
2018-11-03T01:20:11.243Z,100811.30
2018-11-03T01:22:38.986Z,100814.77
2018-11-03T01:25:07.283Z,100809.66
2018-11-03T01:27:35.011Z,100811.59
2018-11-03T01:30:02.948Z,100809.28
2018-11-03T01:32:30.800Z,100810.52
2018-11-03T01:34:58.582Z,100802.42
2018-11-03T01:37:26.319Z,100799.83
2018-11-03T01:39:54.084Z,100799.83
2018-11-03T01:42:21.802Z,100798.12
2018-11-03T01:44:49.518Z,100799.69
2018-11-03T01:47:17.238Z,100800.80
2018-11-03T01:49:45.747Z,100799.14
2018-11-03T01:52:13.479Z,100799.45
2018-11-03T01:54:41.246Z,100803.75
2018-11-03T01:57:08.983Z,100807.42
2018-11-03T01:59:36.734Z,100806.72
2018-11-03T02:02:04.556Z,100809.41
2018-11-03T02:04:32.269Z,100805.11
2018-11-03T02:06:59.999Z,100804.53
2018-11-03T02:09:27.746Z,100813.16
2018-11-03T02:11:55.458Z,100812.92
2018-11-03T02:14:23.173Z,100808.48
2018-11-03T02:16:50.900Z,100811.71
2018-11-03T02:19:18.642Z,100813.45
2018-11-03T02:21:46.453Z,100809.77
2018-11-03T02:24:14.211Z,100814.36
2018-11-03T02:26:42.121Z,100817.46
2018-11-03T02:29:10.052Z,100812.91
2018-11-03T02:31:37.784Z,100815.91
2018-11-03T02:34:05.627Z,100819.09
2018-11-03T02:36:33.332Z,100827.39
2018-11-03T02:39:01.066Z,100826.06
2018-11-03T02:41:28.801Z,100828.71
2018-11-03T02:43:56.546Z,100826.59
2018-11-03T02:46:24.289Z,100834.66
2018-11-03T02:48:52.025Z,100837.30
2018-11-03T02:51:19.765Z,100829.20
2018-11-03T02:53:47.510Z,100833.98
2018-11-03T02:56:15.279Z,100834.91
2018-11-03T02:58:43.015Z,100834.12
2018-11-03T03:01:10.766Z,100833.75
2018-11-03T03:03:38.495Z,100833.85
2018-11-03T03:06:06.259Z,100837.88
2018-11-03T03:08:33.988Z,100832.95
2018-11-03T03:11:01.714Z,100836.73
2018-11-03T03:13:29.435Z,100837.10
2018-11-03T03:15:57.167Z,100835.44
2018-11-03T03:18:24.918Z,100840.16
2018-11-03T03:20:52.662Z,100837.43
2018-11-03T03:23:20.394Z,100837.50
2018-11-03T03:25:48.122Z,100832.77
2018-11-03T03:28:15.886Z,100837.41
2018-11-03T03:30:43.639Z,100841.36
2018-11-03T03:33:11.399Z,100837.39
2018-11-03T03:35:39.108Z,100838.39
2018-11-03T03:38:06.855Z,100837.69
2018-11-03T03:40:34.609Z,100844.09
2018-11-03T03:43:02.326Z,100837.39
2018-11-03T03:45:30.047Z,100829.58
2018-11-03T03:47:57.803Z,100833.76
2018-11-03T03:50:25.551Z,100832.01
2018-11-03T03:52:53.303Z,100828.12
2018-11-03T03:55:21.030Z,100833.12
2018-11-03T03:57:48.767Z,100834.00
2018-11-03T04:00:16.534Z,100826.76
2018-11-03T04:02:44.314Z,100830.16
2018-11-03T04:05:12.084Z,100824.19
2018-11-03T04:07:39.810Z,100823.16
2018-11-03T04:10:08.446Z,100819.00
2018-11-03T04:12:36.216Z,100818.23
2018-11-03T04:15:04.375Z,100818.44
2018-11-03T04:17:32.138Z,100810.27
2018-11-03T04:19:59.862Z,100805.97
2018-11-03T04:22:27.632Z,100811.62
2018-11-03T04:24:55.353Z,100811.52
2018-11-03T04:27:23.095Z,100817.09
2018-11-03T04:29:50.892Z,100815.60
2018-11-03T04:32:18.629Z,100814.14
2018-11-03T04:34:46.373Z,100811.52
2018-11-03T04:37:14.126Z,100808.73
2018-11-03T04:39:41.880Z,100810.05
2018-11-03T04:42:09.952Z,100813.37
2018-11-03T04:44:37.667Z,100823.05
2018-11-03T04:47:05.439Z,100828.22
2018-11-03T04:49:33.187Z,100829.55
2018-11-03T04:52:00.923Z,100830.21
2018-11-03T04:54:28.666Z,100826.61
2018-11-03T04:56:56.410Z,100828.17
2018-11-03T04:59:24.129Z,100837.48
2018-11-03T05:01:51.859Z,100836.53
2018-11-03T05:04:19.590Z,100842.31
2018-11-03T05:06:47.327Z,100837.52
2018-11-03T05:09:15.062Z,100838.52
2018-11-03T05:11:42.824Z,100849.92
2018-11-03T05:14:10.611Z,100841.05
2018-11-03T05:16:38.374Z,100849.77
2018-11-03T05:19:06.930Z,100845.66
2018-11-03T05:21:34.695Z,100846.69
2018-11-03T05:24:02.440Z,100843.55
2018-11-03T05:26:30.193Z,100851.74
2018-11-03T05:28:57.927Z,100853.06
2018-11-03T05:31:25.777Z,100852.59
2018-11-03T05:33:53.422Z,100858.92
2018-11-03T05:36:21.204Z,100850.07
2018-11-03T05:38:48.966Z,100851.72
2018-11-03T05:41:16.698Z,100857.35
2018-11-03T05:43:44.424Z,100856.53
2018-11-03T05:46:12.206Z,100858.44
2018-11-03T05:48:39.953Z,100864.76
2018-11-03T05:51:07.678Z,100867.35
2018-11-03T05:53:35.496Z,100869.47
2018-11-03T05:56:03.202Z,100863.92
2018-11-03T05:58:31.142Z,100868.47
2018-11-03T06:00:58.893Z,100866.57
2018-11-03T06:03:26.683Z,100861.98
2018-11-03T06:05:54.813Z,100861.52
2018-11-03T06:08:22.563Z,100868.59
2018-11-03T06:10:50.299Z,100866.16
2018-11-03T06:13:18.041Z,100860.86
2018-11-03T06:15:45.795Z,100865.08
2018-11-03T06:18:13.527Z,100878.31
2018-11-03T06:20:41.271Z,100873.97
2018-11-03T06:23:09.084Z,100872.88
2018-11-03T06:25:36.798Z,100873.76
2018-11-03T06:28:04.686Z,100879.62
2018-11-03T06:30:32.408Z,100879.89
2018-11-03T06:33:00.251Z,100882.53
2018-11-03T06:35:28.173Z,100881.63
2018-11-03T06:37:55.807Z,100884.07
2018-11-03T06:40:23.547Z,100891.19
2018-11-03T06:42:51.298Z,100886.38
2018-11-03T06:45:19.022Z,100887.83
2018-11-03T06:47:46.806Z,100888.04
2018-11-03T06:50:14.539Z,100885.72
2018-11-03T06:52:42.287Z,100885.30
2018-11-03T06:55:10.096Z,100895.73
2018-11-03T06:57:37.838Z,100896.30
2018-11-03T07:00:07.252Z,100896.19
2018-11-03T07:02:34.994Z,100896.99
2018-11-03T07:05:02.796Z,100897.87
2018-11-03T07:07:30.532Z,100899.48
2018-11-03T07:09:58.294Z,100894.16
2018-11-03T07:12:26.214Z,100896.52
2018-11-03T07:14:53.812Z,100902.87
2018-11-03T07:17:21.579Z,100907.75
2018-11-03T07:19:49.331Z,100904.43
2018-11-03T07:22:17.075Z,100899.59
2018-11-03T07:24:44.834Z,100899.13
2018-11-03T07:27:12.598Z,100896.88
2018-11-03T07:29:40.737Z,100906.12
2018-11-03T07:32:08.406Z,100901.11
2018-11-03T07:34:36.228Z,100907.53
2018-11-03T07:37:03.989Z,100902.13
2018-11-03T07:39:31.722Z,100907.40
2018-11-03T07:41:59.461Z,100906.10
2018-11-03T07:44:27.180Z,100910.75
2018-11-03T07:46:54.914Z,100909.94
2018-11-03T07:49:22.711Z,100904.56
2018-11-03T07:51:50.423Z,100905.70
2018-11-03T07:54:18.149Z,100909.61
2018-11-03T07:56:45.894Z,100909.81
2018-11-03T07:59:13.662Z,100901.67
2018-11-03T08:01:41.415Z,100909.53
2018-11-03T08:04:09.530Z,100903.54
2018-11-03T08:06:37.423Z,100901.97
2018-11-03T08:09:08.032Z,100899.22
2018-11-03T08:11:35.787Z,100902.80
2018-11-03T08:14:03.542Z,100904.34
2018-11-03T08:16:31.329Z,100910.36
2018-11-03T08:18:59.183Z,100903.41
2018-11-03T08:21:26.951Z,100906.38
2018-11-03T08:23:54.802Z,100905.66
2018-11-03T08:26:22.498Z,100906.67
2018-11-03T08:28:50.219Z,100905.89
2018-11-03T08:31:18.009Z,100906.80
2018-11-03T08:33:45.714Z,100899.86
2018-11-03T08:36:13.479Z,100899.41
2018-11-03T08:38:41.419Z,100893.66
2018-11-03T08:41:10.106Z,100894.11
2018-11-03T08:43:38.043Z,100897.27
2018-11-03T08:46:06.742Z,100897.91
2018-11-03T08:48:34.521Z,100897.00
2018-11-03T08:51:02.258Z,100897.78
2018-11-03T08:53:30.042Z,100895.17
2018-11-03T08:55:57.794Z,100890.09
2018-11-03T08:58:25.598Z,100891.61
2018-11-03T09:00:53.414Z,100894.45
2018-11-03T09:03:21.160Z,100892.66
2018-11-03T09:05:48.910Z,100894.40
2018-11-03T09:08:16.651Z,100891.57
2018-11-03T09:10:44.419Z,100888.32
2018-11-03T09:13:12.311Z,100889.19
2018-11-03T09:15:40.082Z,100887.09
2018-11-03T09:18:07.868Z,100887.49
2018-11-03T09:20:35.612Z,100888.55
2018-11-03T09:23:03.387Z,100876.48
2018-11-03T09:25:31.210Z,100883.28
2018-11-03T09:27:58.963Z,100878.19
2018-11-03T09:30:26.711Z,100876.86
2018-11-03T09:32:54.447Z,100871.91
2018-11-03T09:35:22.183Z,100871.77
2018-11-03T09:37:50.055Z,100870.95
2018-11-03T09:40:18.015Z,100864.96
2018-11-03T09:42:46.571Z,100865.33
2018-11-03T09:45:14.667Z,100856.61
2018-11-03T09:47:42.797Z,100857.97
2018-11-03T09:50:11.962Z,100864.96
2018-11-03T09:52:40.144Z,100860.62
2018-11-03T09:55:09.907Z,100856.61
2018-11-03T09:57:37.658Z,100843.30
2018-11-03T10:00:08.354Z,100842.80
2018-11-03T10:02:36.123Z,100839.98
2018-11-03T10:05:04.222Z,100835.55
2018-11-03T10:07:31.963Z,100837.02
2018-11-03T10:09:59.705Z,100832.89
2018-11-03T10:12:27.439Z,100826.56
2018-11-03T10:14:55.190Z,100822.11
2018-11-03T10:17:22.955Z,100822.58
2018-11-03T10:19:50.699Z,100814.42
2018-11-03T10:22:18.474Z,100807.93
2018-11-03T10:24:46.190Z,100812.00
2018-11-03T10:27:13.973Z,100805.28
2018-11-03T10:29:41.719Z,100801.92
2018-11-03T10:32:09.462Z,100794.80
2018-11-03T10:34:37.182Z,100790.63
2018-11-03T10:37:05.002Z,100791.80
2018-11-03T10:39:32.762Z,100789.19
2018-11-03T10:42:00.528Z,100790.58
2018-11-03T10:44:28.270Z,100784.96
2018-11-03T10:46:56.055Z,100785.73
2018-11-03T10:49:23.843Z,100780.06
2018-11-03T10:51:51.598Z,100780.98
2018-11-03T10:54:19.331Z,100770.06
2018-11-03T10:56:47.125Z,100765.87
2018-11-03T10:59:14.854Z,100764.11
2018-11-03T11:01:48.237Z,100764.82
2018-11-03T11:04:21.450Z,100763.90
2018-11-03T11:06:54.634Z,100763.33
2018-11-03T11:09:27.925Z,100762.53
2018-11-03T11:12:01.175Z,100760.44
2018-11-03T11:14:28.909Z,100754.52
2018-11-03T11:16:56.657Z,100756.15
2018-11-03T11:19:24.402Z,100747.52
2018-11-03T11:21:52.178Z,100747.72
2018-11-03T11:24:20.160Z,100742.63
2018-11-03T11:26:47.747Z,100740.28
2018-11-03T11:29:15.495Z,100739.63
2018-11-03T11:31:43.272Z,100733.44
2018-11-03T11:34:11.018Z,100730.78
2018-11-03T11:36:38.771Z,100720.44
2018-11-03T11:39:07.386Z,100727.22
2018-11-03T11:41:35.164Z,100728.40
2018-11-03T11:44:02.950Z,100722.59
2018-11-03T11:46:30.680Z,100715.44
2018-11-03T11:48:58.430Z,100720.02
2018-11-03T11:51:26.202Z,100722.33
2018-11-03T11:53:54.038Z,100715.89
2018-11-03T11:56:21.775Z,100706.91
2018-11-03T11:58:49.528Z,100713.86
2018-11-03T12:01:17.291Z,100716.09
2018-11-03T12:03:45.011Z,100713.69
2018-11-03T12:06:12.773Z,100711.73
2018-11-03T12:08:40.590Z,100707.59
2018-11-03T12:11:08.329Z,100709.29
2018-11-03T12:13:36.084Z,100712.55
2018-11-03T12:16:03.859Z,100705.51
2018-11-03T12:18:31.623Z,100709.19
2018-11-03T12:20:59.347Z,100714.33
2018-11-03T12:23:27.094Z,100712.50
2018-11-03T12:25:54.885Z,100713.11
2018-11-03T12:28:22.614Z,100706.51
2018-11-03T12:30:50.367Z,100707.87
2018-11-03T12:33:18.100Z,100704.84
2018-11-03T12:35:45.842Z,100703.66
2018-11-03T12:38:13.583Z,100699.67
2018-11-03T12:40:41.407Z,100703.86
2018-11-03T12:43:09.730Z,100705.78
2018-11-03T12:45:37.471Z,100702.56
2018-11-03T12:48:05.487Z,100695.26
2018-11-03T12:50:33.284Z,100685.84
2018-11-03T12:53:00.998Z,100690.81
2018-11-03T12:55:28.742Z,100691.84
2018-11-03T12:57:56.466Z,100698.84
2018-11-03T13:00:24.249Z,100691.58
2018-11-03T13:02:51.998Z,100686.83
2018-11-03T13:05:19.872Z,100692.24
2018-11-03T13:07:47.547Z,100689.75
2018-11-03T13:10:15.291Z,100686.23
2018-11-03T13:12:43.131Z,100686.07
2018-11-03T13:15:12.043Z,100689.66
2018-11-03T13:17:39.864Z,100691.58
2018-11-03T13:20:09.270Z,100696.12
2018-11-03T13:22:37.089Z,100696.02
2018-11-03T13:25:05.406Z,100693.84
2018-11-03T13:27:33.170Z,100691.95
2018-11-03T13:30:00.891Z,100687.40
2018-11-03T13:32:28.671Z,100685.61
2018-11-03T13:34:56.523Z,100678.97
2018-11-03T13:37:24.197Z,100679.80
2018-11-03T13:39:51.986Z,100674.30
2018-11-03T13:42:19.746Z,100678.27
2018-11-03T13:44:47.479Z,100678.41
2018-11-03T13:47:15.342Z,100667.02
2018-11-03T13:49:43.101Z,100669.65
2018-11-03T13:52:10.999Z,100670.11
2018-11-03T13:54:38.754Z,100670.81
2018-11-03T13:57:06.589Z,100665.73
2018-11-03T13:59:34.290Z,100672.86
2018-11-03T14:02:02.070Z,100668.52
2018-11-03T14:04:29.807Z,100668.78
2018-11-03T14:06:57.571Z,100670.28
2018-11-03T14:09:25.305Z,100672.17
2018-11-03T14:11:53.079Z,100664.97
2018-11-03T14:14:20.931Z,100664.80
2018-11-03T14:16:48.662Z,100668.16
2018-11-03T14:19:16.415Z,100665.92
2018-11-03T14:21:44.139Z,100665.00
2018-11-03T14:24:11.874Z,100669.61
2018-11-03T14:26:39.602Z,100664.14
2018-11-03T14:29:07.479Z,100663.02
2018-11-03T14:31:35.222Z,100663.17
2018-11-03T14:34:02.974Z,100668.64
2018-11-03T14:36:30.700Z,100660.95
2018-11-03T14:38:58.671Z,100663.16
2018-11-03T14:41:26.439Z,100667.44
2018-11-03T14:43:54.175Z,100666.06
2018-11-03T14:46:21.978Z,100669.84
2018-11-03T14:48:49.831Z,100671.47
2018-11-03T14:51:17.589Z,100665.41
2018-11-03T14:53:45.331Z,100664.91
2018-11-03T14:56:13.055Z,100669.96
2018-11-03T14:58:40.786Z,100676.73
2018-11-03T15:01:08.579Z,100676.44
2018-11-03T15:03:36.338Z,100675.45
2018-11-03T15:06:04.158Z,100676.78
2018-11-03T15:08:31.992Z,100671.84
2018-11-03T15:10:59.769Z,100683.41
2018-11-03T15:13:27.523Z,100679.38
2018-11-03T15:15:55.266Z,100674.91
2018-11-03T15:18:23.018Z,100682.14
2018-11-03T15:20:50.757Z,100681.53
2018-11-03T15:23:18.491Z,100678.36
2018-11-03T15:25:46.239Z,100680.00
2018-11-03T15:28:13.970Z,100680.00
2018-11-03T15:30:41.739Z,100687.12
2018-11-03T15:33:09.494Z,100688.62
2018-11-03T15:35:37.263Z,100688.13
2018-11-03T15:38:05.289Z,100689.42
2018-11-03T15:40:33.156Z,100686.90
2018-11-03T15:43:00.880Z,100694.27
2018-11-03T15:45:28.675Z,100696.17
2018-11-03T15:47:56.487Z,100699.83
2018-11-03T15:50:24.211Z,100701.31
2018-11-03T15:52:51.960Z,100704.91
2018-11-03T15:55:19.678Z,100706.47
2018-11-03T15:57:47.435Z,100706.08
2018-11-03T16:00:19.559Z,100712.30
2018-11-03T16:02:47.684Z,100712.94
2018-11-03T16:05:15.811Z,100711.68
2018-11-03T16:07:44.298Z,100708.48
2018-11-03T16:10:12.026Z,100710.55
2018-11-03T16:12:39.873Z,100720.37
2018-11-03T16:15:08.910Z,100718.32
2018-11-03T16:17:36.703Z,100711.02
2018-11-03T16:20:05.419Z,100721.83
2018-11-03T16:22:33.462Z,100723.98
2018-11-03T16:25:04.587Z,100719.50
2018-11-03T16:27:32.311Z,100725.75
2018-11-03T16:30:00.031Z,100727.63
2018-11-03T16:32:27.952Z,100731.31
2018-11-03T16:34:55.707Z,100735.70
2018-11-03T16:37:23.427Z,100735.47
2018-11-03T16:39:51.154Z,100734.59
2018-11-03T16:42:18.895Z,100736.34
2018-11-03T16:44:46.654Z,100741.48
2018-11-03T16:47:14.382Z,100739.75
2018-11-03T16:49:42.138Z,100741.17
2018-11-03T16:52:09.911Z,100739.70
2018-11-03T16:54:37.638Z,100737.69
2018-11-03T16:57:05.434Z,100737.41
2018-11-03T16:59:33.178Z,100737.84
2018-11-03T17:02:01.039Z,100738.34
2018-11-03T17:04:29.014Z,100747.56
2018-11-03T17:06:56.999Z,100741.49
2018-11-03T17:09:24.731Z,100747.83
2018-11-03T17:11:52.491Z,100748.02
2018-11-03T17:14:20.270Z,100739.95
2018-11-03T17:16:47.999Z,100746.58
2018-11-03T17:19:15.735Z,100744.75
2018-11-03T17:21:43.472Z,100750.77
2018-11-03T17:24:11.235Z,100751.33
2018-11-03T17:26:38.962Z,100748.89
2018-11-03T17:29:06.778Z,100754.55
2018-11-03T17:31:34.727Z,100758.38
2018-11-03T17:34:02.463Z,100763.64
2018-11-03T17:36:30.432Z,100765.88
2018-11-03T17:38:58.127Z,100767.28
2018-11-03T17:41:25.857Z,100767.85
2018-11-03T17:43:53.626Z,100769.88
2018-11-03T17:46:21.375Z,100762.37
2018-11-03T17:48:49.111Z,100759.47
2018-11-03T17:51:16.823Z,100761.38
2018-11-03T17:53:44.578Z,100765.96
2018-11-03T17:56:12.354Z,100766.40
2018-11-03T17:58:40.090Z,100758.92
2018-11-03T18:01:07.853Z,100760.62
2018-11-03T18:03:35.590Z,100758.97
2018-11-03T18:06:03.396Z,100760.25
2018-11-03T18:08:31.114Z,100760.30
2018-11-03T18:10:58.846Z,100768.18
2018-11-03T18:13:26.558Z,100764.91
2018-11-03T18:15:54.311Z,100771.39
2018-11-03T18:18:22.035Z,100772.08
2018-11-03T18:20:49.822Z,100773.81
2018-11-03T18:23:17.575Z,100776.22
2018-11-03T18:25:45.282Z,100776.13
2018-11-03T18:28:13.091Z,100778.01
2018-11-03T18:30:40.882Z,100771.40
2018-11-03T18:33:08.738Z,100773.52
2018-11-03T18:35:36.391Z,100774.38
2018-11-03T18:38:04.190Z,100773.06
2018-11-03T18:40:31.915Z,100777.31
2018-11-03T18:42:59.680Z,100776.78
2018-11-03T18:45:27.396Z,100773.14
2018-11-03T18:47:55.275Z,100772.48
2018-11-03T18:50:23.016Z,100776.41
2018-11-03T18:52:50.817Z,100779.80
2018-11-03T18:55:18.632Z,100778.75
2018-11-03T18:57:46.370Z,100783.39
2018-11-03T19:00:14.103Z,100786.11
2018-11-03T19:02:42.102Z,100797.84
2018-11-03T19:05:09.798Z,100794.50
2018-11-03T19:07:37.762Z,100798.66
2018-11-03T19:10:06.310Z,100799.00
2018-11-03T19:12:34.047Z,100800.77
2018-11-03T19:15:01.776Z,100806.06
2018-11-03T19:17:29.518Z,100806.80
2018-11-03T19:19:57.233Z,100812.87
2018-11-03T19:22:24.962Z,100807.63
2018-11-03T19:24:52.760Z,100813.78
2018-11-03T19:27:20.494Z,100811.06
2018-11-03T19:29:48.258Z,100810.81
2018-11-03T19:32:16.063Z,100810.81
2018-11-03T19:34:43.797Z,100813.33
2018-11-03T19:37:11.550Z,100818.20
2018-11-03T19:39:39.274Z,100814.64
2018-11-03T19:42:07.006Z,100815.97
2018-11-03T19:44:34.755Z,100810.10
2018-11-03T19:47:02.475Z,100807.63
2018-11-03T19:49:30.214Z,100813.98
2018-11-03T19:51:57.994Z,100811.47
2018-11-03T19:54:25.713Z,100817.23
2018-11-03T19:56:53.484Z,100816.48
2018-11-03T19:59:21.215Z,100824.36
2018-11-03T20:01:48.962Z,100822.19
2018-11-03T20:04:16.714Z,100820.78
2018-11-03T20:06:44.433Z,100824.30
2018-11-03T20:09:12.154Z,100823.69
2018-11-03T20:11:39.917Z,100823.70
2018-11-03T20:14:08.199Z,100824.50
2018-11-03T20:16:35.811Z,100820.66
2018-11-03T20:19:03.576Z,100829.02
2018-11-03T20:21:31.315Z,100829.70
2018-11-03T20:23:59.078Z,100827.79
2018-11-03T20:26:26.843Z,100828.66
2018-11-03T20:28:54.602Z,100826.59
2018-11-03T20:31:22.322Z,100832.42
2018-11-03T20:33:50.039Z,100832.48
2018-11-03T20:36:17.774Z,100826.68
2018-11-03T20:38:45.518Z,100829.97
2018-11-03T20:41:13.248Z,100832.98
2018-11-03T20:43:40.997Z,100832.94
2018-11-03T20:46:08.776Z,100827.05
2018-11-03T20:48:36.579Z,100832.94
2018-11-03T20:51:09.340Z,100836.23
2018-11-03T20:53:37.499Z,100834.92
2018-11-03T20:56:05.893Z,100831.80
2018-11-03T20:58:33.667Z,100836.94
2018-11-03T21:01:01.570Z,100836.80
2018-11-03T21:03:29.330Z,100839.20
2018-11-03T21:05:57.929Z,100839.72
2018-11-03T21:08:26.671Z,100836.44
2018-11-03T21:10:54.418Z,100839.27
2018-11-03T21:13:22.211Z,100845.53
2018-11-03T21:15:50.078Z,100834.91
2018-11-03T21:18:17.846Z,100837.88
2018-11-03T21:20:45.559Z,100834.78
2018-11-03T21:23:13.317Z,100831.73
2018-11-03T21:25:41.051Z,100840.55
2018-11-03T21:28:08.799Z,100833.47
2018-11-03T21:30:36.547Z,100833.84
2018-11-03T21:33:04.633Z,100827.13
2018-11-03T21:35:32.259Z,100835.62
2018-11-03T21:37:59.970Z,100843.69
2018-11-03T21:40:27.702Z,100837.45
2018-11-03T21:42:55.451Z,100837.72
2018-11-03T21:45:23.271Z,100832.65
2018-11-03T21:47:50.977Z,100832.63
2018-11-03T21:50:18.691Z,100829.48
2018-11-03T21:52:46.416Z,100830.41
2018-11-03T21:55:14.147Z,100830.01
2018-11-03T21:57:41.919Z,100831.61
2018-11-03T22:00:10.602Z,100822.72
2018-11-03T22:02:38.334Z,100821.77
2018-11-03T22:05:08.054Z,100832.00
2018-11-03T22:07:35.782Z,100820.05
2018-11-03T22:10:03.583Z,100823.26
2018-11-03T22:12:31.311Z,100817.04
2018-11-03T22:14:59.902Z,100821.81
2018-11-03T22:17:28.719Z,100814.28
2018-11-03T22:19:57.639Z,100811.10
2018-11-03T22:22:25.390Z,100811.62
2018-11-03T22:24:53.143Z,100812.42
2018-11-03T22:27:20.942Z,100807.41
2018-11-03T22:29:48.758Z,100801.83
2018-11-03T22:32:16.532Z,100808.23
2018-11-03T22:34:44.250Z,100810.05
2018-11-03T22:37:12.010Z,100807.83
2018-11-03T22:39:39.760Z,100797.41
2018-11-03T22:42:07.513Z,100804.36
2018-11-03T22:44:39.003Z,100810.19
2018-11-03T22:56:50.029Z,100810.80
2018-11-03T22:59:19.969Z,100807.67
2018-11-03T23:01:50.544Z,100805.63
2018-11-03T23:04:18.919Z,100804.73
2018-11-03T23:06:46.643Z,100795.83
2018-11-03T23:09:14.363Z,100799.37
2018-11-03T23:11:42.145Z,100794.27
2018-11-03T23:14:09.875Z,100795.34
2018-11-03T23:16:37.595Z,100801.53
2018-11-03T23:19:05.964Z,100792.64
2018-11-03T23:21:33.750Z,100797.58
2018-11-03T23:24:01.467Z,100796.52
2018-11-03T23:26:29.199Z,100794.94
2018-11-03T23:28:56.947Z,100793.81
2018-11-03T23:31:24.731Z,100791.70
2018-11-03T23:33:52.495Z,100787.94
2018-11-03T23:36:20.275Z,100788.28
2018-11-03T23:38:48.069Z,100778.11
2018-11-03T23:41:15.814Z,100785.23
2018-11-03T23:43:43.531Z,100781.34
2018-11-03T23:46:11.262Z,100785.54
2018-11-03T23:48:38.990Z,100784.16
2018-11-03T23:51:06.762Z,100774.45
2018-11-03T23:53:34.963Z,100776.08
2018-11-03T23:56:02.682Z,100777.59
2018-11-03T23:58:30.455Z,100771.25
